createdAt,value
2023-02-18T00:00:34.858Z,10.73
2023-02-18T00:01:36.525Z,9.30
2023-02-18T00:02:38.198Z,10.07
2023-02-18T00:03:41.115Z,11.00
2023-02-18T00:04:42.834Z,10.65
2023-02-18T00:05:44.415Z,9.43
2023-02-18T00:06:46.025Z,10.43
2023-02-18T00:07:47.739Z,7.60
2023-02-18T00:08:49.508Z,9.30
2023-02-18T00:09:51.170Z,11.70
2023-02-18T00:10:53.329Z,10.38
2023-02-18T00:11:54.939Z,10.23
2023-02-18T00:12:56.613Z,8.75
2023-02-18T00:13:59.922Z,9.07
2023-02-18T00:15:01.583Z,10.70
2023-02-18T00:16:04.246Z,10.05
2023-02-18T00:17:05.952Z,11.53
2023-02-18T00:18:07.691Z,8.00
2023-02-18T00:19:11.681Z,10.25
2023-02-18T00:20:13.664Z,9.23
2023-02-18T00:21:15.334Z,10.18
2023-02-18T00:22:17.006Z,9.45
2023-02-18T00:23:18.600Z,8.40
2023-02-18T00:24:20.237Z,9.52
2023-02-18T00:25:21.834Z,10.57
2023-02-18T00:26:23.434Z,8.23
2023-02-18T00:27:25.155Z,7.60
2023-02-18T00:28:26.745Z,10.30
2023-02-18T00:29:28.368Z,8.02
2023-02-18T00:30:30.096Z,10.00
2023-02-18T00:31:33.605Z,8.80
2023-02-18T00:32:35.747Z,8.68
2023-02-18T00:33:37.802Z,8.43
2023-02-18T00:34:39.505Z,7.60
2023-02-18T00:35:41.101Z,8.55
2023-02-18T00:36:42.977Z,7.43
2023-02-18T00:37:44.616Z,7.93
2023-02-18T00:38:52.199Z,7.50
2023-02-18T00:39:54.013Z,9.60
2023-02-18T00:40:55.621Z,8.38
2023-02-18T00:41:57.362Z,7.65
2023-02-18T00:42:58.949Z,6.63
2023-02-18T00:44:00.561Z,7.30
2023-02-18T00:45:02.284Z,7.20
2023-02-18T00:46:04.066Z,7.00
2023-02-18T00:47:05.687Z,6.97
2023-02-18T00:48:07.272Z,7.67
2023-02-18T00:49:08.955Z,8.10
2023-02-18T00:50:10.852Z,9.23
2023-02-18T00:51:12.548Z,7.45
2023-02-18T00:52:14.214Z,10.05
2023-02-18T00:53:15.806Z,8.80
2023-02-18T00:54:17.499Z,8.52
2023-02-18T00:55:19.268Z,8.38
2023-02-18T00:56:20.991Z,7.60
2023-02-18T00:57:22.629Z,8.85
2023-02-18T00:58:24.323Z,8.60
2023-02-18T00:59:26.001Z,8.90
2023-02-18T01:00:27.658Z,10.55
2023-02-18T01:01:29.309Z,9.02
2023-02-18T01:02:30.938Z,8.10
2023-02-18T01:03:32.614Z,8.68
2023-02-18T01:04:34.304Z,8.45
2023-02-18T01:05:36.906Z,9.55
2023-02-18T01:06:38.661Z,7.97
2023-02-18T01:07:40.261Z,8.63
2023-02-18T01:08:42.211Z,7.93
2023-02-18T01:09:43.924Z,12.00
2023-02-18T01:10:46.564Z,9.35
2023-02-18T01:11:48.214Z,9.68
2023-02-18T01:12:49.913Z,10.23
2023-02-18T01:13:51.997Z,8.68
2023-02-18T01:14:53.769Z,12.38
2023-02-18T01:15:55.605Z,10.73
2023-02-18T01:16:57.251Z,9.65
2023-02-18T01:17:59.225Z,7.82
2023-02-18T01:19:00.905Z,9.13
2023-02-18T01:20:02.544Z,7.25
2023-02-18T01:21:05.404Z,8.93
2023-02-18T01:22:07.174Z,7.50
2023-02-18T01:23:08.826Z,7.80
2023-02-18T01:24:10.423Z,8.90
2023-02-18T01:25:12.501Z,8.40
2023-02-18T01:26:14.173Z,7.45
2023-02-18T01:27:15.786Z,8.80
2023-02-18T01:28:17.522Z,6.85
2023-02-18T01:29:19.124Z,7.63
2023-02-18T01:30:21.164Z,7.15
2023-02-18T01:31:23.014Z,8.60
2023-02-18T01:32:24.619Z,6.25
2023-02-18T01:33:26.226Z,6.68
2023-02-18T01:34:27.911Z,7.03
2023-02-18T01:35:29.529Z,7.57
2023-02-18T01:36:31.108Z,6.10
2023-02-18T01:37:32.739Z,6.20
2023-02-18T01:38:34.459Z,6.10
2023-02-18T01:39:39.076Z,6.83
2023-02-18T01:40:48.967Z,5.82
2023-02-18T01:41:50.568Z,6.47
2023-02-18T01:42:52.299Z,7.95
2023-02-18T01:44:15.155Z,7.00
2023-02-18T01:45:37.954Z,7.18
2023-02-18T01:46:39.638Z,5.70
2023-02-18T01:47:41.237Z,6.65
2023-02-18T01:48:54.078Z,6.35
2023-02-18T01:49:55.662Z,7.63
2023-02-18T01:51:04.803Z,6.80
2023-02-18T01:52:11.624Z,6.35
2023-02-18T01:53:15.084Z,8.50
2023-02-18T01:54:21.658Z,6.13
2023-02-18T01:55:23.258Z,5.78
2023-02-18T01:57:01.825Z,5.10
2023-02-18T01:58:03.449Z,5.68
2023-02-18T01:59:08.082Z,7.28
2023-02-18T02:00:15.236Z,6.70
2023-02-18T02:01:16.810Z,6.18
2023-02-18T02:02:20.720Z,5.47
2023-02-18T02:03:22.311Z,5.40
2023-02-18T02:04:23.936Z,4.35
2023-02-18T02:05:30.338Z,5.25
2023-02-18T02:06:32.096Z,5.32
2023-02-18T02:07:33.749Z,4.07
2023-02-18T02:08:35.322Z,4.72
2023-02-18T02:09:36.914Z,4.32
2023-02-18T02:10:45.484Z,4.30
2023-02-18T02:12:21.814Z,5.50
2023-02-18T02:13:54.364Z,5.40
2023-02-18T02:15:29.680Z,3.53
2023-02-18T02:16:47.781Z,2.95
2023-02-18T02:18:20.024Z,2.88
2023-02-18T02:20:09.628Z,2.90
2023-02-18T02:21:44.511Z,3.65
2023-02-18T02:23:14.164Z,3.42
2023-02-18T02:24:42.044Z,2.50
2023-02-18T02:26:08.516Z,2.50
2023-02-18T02:27:15.192Z,1.70
2023-02-18T02:28:53.943Z,1.80
2023-02-18T02:30:05.355Z,2.15
2023-02-18T02:31:42.222Z,4.93
2023-02-18T02:32:49.519Z,4.45
2023-02-18T02:34:17.522Z,3.47
2023-02-18T02:35:48.583Z,4.53
2023-02-18T02:36:56.417Z,2.15
2023-02-18T02:38:21.367Z,1.65
2023-02-18T02:40:01.560Z,2.75
2023-02-18T02:41:27.661Z,2.42
2023-02-18T02:42:32.220Z,2.43
2023-02-18T02:43:39.834Z,2.05
2023-02-18T02:44:49.857Z,3.55
2023-02-18T02:46:03.747Z,2.35
2023-02-18T02:47:11.832Z,1.42
2023-02-18T02:48:25.380Z,2.53
2023-02-18T02:49:56.099Z,1.65
2023-02-18T02:51:20.476Z,3.15
2023-02-18T02:52:28.801Z,2.47
2023-02-18T02:53:31.467Z,2.75
2023-02-18T02:54:33.164Z,2.30
2023-02-18T02:55:34.777Z,1.90
2023-02-18T02:56:36.374Z,2.58
2023-02-18T02:57:51.702Z,1.83
2023-02-18T02:59:04.417Z,2.85
2023-02-18T03:00:08.283Z,1.48
2023-02-18T03:01:22.357Z,2.50
2023-02-18T03:02:39.551Z,2.55
2023-02-18T03:03:44.725Z,2.00
2023-02-18T03:05:26.643Z,1.45
2023-02-18T03:06:46.873Z,1.10
2023-02-18T03:08:25.368Z,2.17
2023-02-18T03:09:34.292Z,3.08
2023-02-18T03:11:02.857Z,2.22
2023-02-18T03:12:08.836Z,2.78
2023-02-18T03:13:26.724Z,2.47
2023-02-18T03:14:57.311Z,2.13
2023-02-18T03:16:33.108Z,2.90
2023-02-18T03:17:37.427Z,2.70
2023-02-18T03:18:41.460Z,2.28
2023-02-18T03:19:49.752Z,2.23
2023-02-18T03:20:55.249Z,1.92
2023-02-18T03:22:01.796Z,3.22
2023-02-18T03:23:05.040Z,2.03
2023-02-18T03:24:20.933Z,1.60
2023-02-18T03:25:22.572Z,2.30
2023-02-18T03:26:24.841Z,2.13
2023-02-18T03:27:32.223Z,3.00
2023-02-18T03:28:35.090Z,2.88
2023-02-18T03:29:36.752Z,3.60
2023-02-18T03:30:45.005Z,2.87
2023-02-18T03:31:47.840Z,2.67
2023-02-18T03:32:49.794Z,2.47
2023-02-18T03:34:02.950Z,3.15
2023-02-18T03:35:14.627Z,2.30
2023-02-18T03:36:16.249Z,2.25
2023-02-18T03:37:17.918Z,1.88
2023-02-18T03:38:40.602Z,3.08
2023-02-18T03:39:43.630Z,2.20
2023-02-18T03:40:45.314Z,4.28
2023-02-18T03:41:46.958Z,2.90
2023-02-18T03:42:48.561Z,3.03
2023-02-18T03:43:53.968Z,2.28
2023-02-18T03:44:55.724Z,3.47
2023-02-18T03:45:57.886Z,3.13
2023-02-18T03:46:59.528Z,2.83
2023-02-18T03:48:01.204Z,3.08
2023-02-18T03:49:02.970Z,3.90
2023-02-18T03:50:05.041Z,3.10
2023-02-18T03:51:06.644Z,4.38
2023-02-18T03:52:08.239Z,4.13
2023-02-18T03:53:09.842Z,4.45
2023-02-18T03:54:11.568Z,3.75
2023-02-18T03:55:13.251Z,4.13
2023-02-18T03:56:14.995Z,4.00
2023-02-18T03:57:16.679Z,3.60
2023-02-18T03:58:18.352Z,4.00
2023-02-18T03:59:19.941Z,3.08
2023-02-18T04:00:21.721Z,3.05
2023-02-18T04:01:23.602Z,4.60
2023-02-18T04:02:25.216Z,3.80
2023-02-18T04:03:26.862Z,5.32
2023-02-18T04:04:28.857Z,4.28
2023-02-18T04:05:30.498Z,5.53
2023-02-18T04:06:32.193Z,4.35
2023-02-18T04:07:33.993Z,4.10
2023-02-18T04:08:35.593Z,5.20
2023-02-18T04:09:37.211Z,3.28
2023-02-18T04:10:38.870Z,4.45
2023-02-18T04:11:40.609Z,6.20
2023-02-18T04:12:42.184Z,5.47
2023-02-18T04:13:43.849Z,4.43
2023-02-18T04:14:45.601Z,3.60
2023-02-18T04:15:49.261Z,5.30
2023-02-18T04:16:50.985Z,4.13
2023-02-18T04:17:52.662Z,3.80
2023-02-18T04:18:54.329Z,4.20
2023-02-18T04:19:55.921Z,4.60
2023-02-18T04:20:57.766Z,6.15
2023-02-18T04:21:59.354Z,4.55
2023-02-18T04:23:01.148Z,5.93
2023-02-18T04:24:02.753Z,6.03
2023-02-18T04:25:04.505Z,4.00
2023-02-18T04:26:06.327Z,3.88
2023-02-18T04:27:08.122Z,5.10
2023-02-18T04:28:11.433Z,4.82
2023-02-18T04:29:13.008Z,4.78
2023-02-18T04:30:16.235Z,4.60
2023-02-18T04:31:18.920Z,5.97
2023-02-18T04:32:20.640Z,5.03
2023-02-18T04:33:22.412Z,3.87
2023-02-18T04:34:24.028Z,4.30
2023-02-18T04:35:25.639Z,5.53
2023-02-18T04:36:27.281Z,5.13
2023-02-18T04:37:28.981Z,5.00
2023-02-18T04:38:30.623Z,4.10
2023-02-18T04:39:32.298Z,5.38
2023-02-18T04:40:34.135Z,5.75
2023-02-18T04:41:35.765Z,4.68
2023-02-18T04:42:37.387Z,3.97
2023-02-18T04:43:39.247Z,5.30
2023-02-18T04:44:40.866Z,4.35
2023-02-18T04:45:42.671Z,5.35
2023-02-18T04:46:44.289Z,4.50
2023-02-18T04:47:45.911Z,4.30
2023-02-18T04:48:47.527Z,5.75
2023-02-18T04:49:49.214Z,4.68
2023-02-18T04:50:50.894Z,5.00
2023-02-18T04:51:52.498Z,4.32
2023-02-18T04:52:54.181Z,4.40
2023-02-18T04:53:55.792Z,4.93
2023-02-18T04:54:57.450Z,4.97
2023-02-18T04:55:59.497Z,5.00
2023-02-18T04:57:01.136Z,3.97
2023-02-18T04:58:02.730Z,4.03
2023-02-18T04:59:04.329Z,4.88
2023-02-18T05:00:07.331Z,6.03
2023-02-18T05:01:08.965Z,4.95
2023-02-18T05:02:10.664Z,4.50
2023-02-18T05:03:12.312Z,4.78
2023-02-18T05:04:13.961Z,5.33
2023-02-18T05:05:15.765Z,4.38
2023-02-18T05:06:17.450Z,4.47
2023-02-18T05:07:19.048Z,4.85
2023-02-18T05:08:20.751Z,5.05
2023-02-18T05:09:22.350Z,4.55
2023-02-18T05:10:23.989Z,4.82
2023-02-18T05:11:25.602Z,3.80
2023-02-18T05:12:27.229Z,4.50
2023-02-18T05:13:28.886Z,6.05
2023-02-18T05:14:30.497Z,5.60
2023-02-18T05:15:32.158Z,4.43
2023-02-18T05:16:33.873Z,4.63
2023-02-18T05:17:35.563Z,4.63
2023-02-18T05:18:37.171Z,4.07
2023-02-18T05:19:38.760Z,5.25
2023-02-18T05:20:40.423Z,4.28
2023-02-18T05:21:42.163Z,3.92
2023-02-18T05:22:43.776Z,6.38
2023-02-18T05:23:45.433Z,4.60
2023-02-18T05:24:47.027Z,4.67
2023-02-18T05:25:48.642Z,4.65
2023-02-18T05:26:50.339Z,4.53
2023-02-18T05:27:51.985Z,4.55
2023-02-18T05:28:53.563Z,4.10
2023-02-18T05:29:55.199Z,5.00
2023-02-18T05:30:56.908Z,4.15
2023-02-18T05:31:58.634Z,4.40
2023-02-18T05:33:00.282Z,4.93
2023-02-18T05:34:01.883Z,4.88
2023-02-18T05:35:03.653Z,3.97
2023-02-18T05:36:05.629Z,3.78
2023-02-18T05:37:07.318Z,4.57
2023-02-18T05:38:09.996Z,4.55
2023-02-18T05:39:11.678Z,4.47
2023-02-18T05:40:13.352Z,4.13
2023-02-18T05:41:14.972Z,4.68
2023-02-18T05:42:16.593Z,3.95
2023-02-18T05:43:18.183Z,4.93
2023-02-18T05:44:31.686Z,3.85
2023-02-18T05:45:33.364Z,4.17
2023-02-18T05:46:35.144Z,4.78
2023-02-18T05:47:36.776Z,3.55
2023-02-18T05:48:38.372Z,4.80
2023-02-18T05:49:40.846Z,4.55
2023-02-18T05:50:42.452Z,4.93
2023-02-18T05:51:44.146Z,4.50
2023-02-18T05:52:45.783Z,3.78
2023-02-18T05:53:47.411Z,5.07
2023-02-18T05:54:49.098Z,4.35
2023-02-18T05:55:50.780Z,4.80
2023-02-18T05:56:52.464Z,5.38
2023-02-18T05:57:54.119Z,5.43
2023-02-18T05:58:55.736Z,4.40
2023-02-18T05:59:59.287Z,5.40
2023-02-18T06:01:01.702Z,4.60
2023-02-18T06:02:03.400Z,4.40
2023-02-18T06:03:04.999Z,4.35
2023-02-18T06:04:06.621Z,5.43
2023-02-18T06:05:08.416Z,5.60
2023-02-18T06:06:10.405Z,5.93
2023-02-18T06:07:12.229Z,7.60
2023-02-18T06:08:13.877Z,6.40
2023-02-18T06:09:15.551Z,6.88
2023-02-18T06:10:18.604Z,9.50
2023-02-18T06:11:20.202Z,5.60
2023-02-18T06:12:21.784Z,8.23
2023-02-18T06:13:23.443Z,5.43
2023-02-18T06:14:25.156Z,5.25
2023-02-18T06:15:26.817Z,7.45
2023-02-18T06:16:28.597Z,6.40
2023-02-18T06:17:30.331Z,4.50
2023-02-18T06:18:31.998Z,8.70
2023-02-18T06:19:33.600Z,7.22
2023-02-18T06:20:35.422Z,10.10
2023-02-18T06:21:37.091Z,4.72
2023-02-18T06:22:38.784Z,5.07
2023-02-18T06:23:40.400Z,4.50
2023-02-18T06:24:42.016Z,4.90
2023-02-18T06:25:43.695Z,4.50
2023-02-18T06:26:45.427Z,4.10
2023-02-18T06:27:47.155Z,3.38
2023-02-18T06:28:48.747Z,5.68
2023-02-18T06:29:50.352Z,4.00
2023-02-18T06:30:51.957Z,3.80
2023-02-18T06:31:53.732Z,3.08
2023-02-18T06:32:55.399Z,4.53
2023-02-18T06:33:57.094Z,3.50
2023-02-18T06:34:58.681Z,2.85
2023-02-18T06:36:07.815Z,3.65
2023-02-18T06:37:09.715Z,3.50
2023-02-18T06:38:11.426Z,3.35
2023-02-18T06:39:13.115Z,3.83
2023-02-18T06:40:14.718Z,4.57
2023-02-18T06:41:16.383Z,3.85
2023-02-18T06:42:18.101Z,8.65
2023-02-18T06:43:20.121Z,4.72
2023-02-18T06:44:21.827Z,4.50
2023-02-18T06:45:23.428Z,4.68
2023-02-18T06:46:25.110Z,5.60
2023-02-18T06:47:26.768Z,5.90
2023-02-18T06:48:28.481Z,6.95
2023-02-18T06:49:30.537Z,9.20
2023-02-18T06:50:32.317Z,7.55
2023-02-18T06:51:33.922Z,8.07
2023-02-18T06:52:35.650Z,8.90
2023-02-18T06:53:37.259Z,8.00
2023-02-18T06:54:39.335Z,8.23
2023-02-18T06:55:41.883Z,10.65
2023-02-18T06:56:43.582Z,9.63
2023-02-18T06:57:45.183Z,13.03
2023-02-18T06:58:46.812Z,7.32
2023-02-18T06:59:48.484Z,8.63
2023-02-18T07:00:50.167Z,8.00
2023-02-18T07:01:51.895Z,7.07
2023-02-18T07:02:53.492Z,10.25
2023-02-18T07:03:55.231Z,7.00
2023-02-18T07:04:56.959Z,8.55
2023-02-18T07:05:58.676Z,9.90
2023-02-18T07:07:00.333Z,6.65
2023-02-18T07:08:02.007Z,5.50
2023-02-18T07:09:03.712Z,7.68
2023-02-18T07:10:06.072Z,6.32
2023-02-18T07:11:07.652Z,5.70
2023-02-18T07:12:09.318Z,4.40
2023-02-18T07:13:10.968Z,5.07
2023-02-18T07:14:12.570Z,4.38
2023-02-18T07:15:14.257Z,6.00
2023-02-18T07:16:15.889Z,6.32
2023-02-18T07:17:17.583Z,4.45
2023-02-18T07:18:19.302Z,5.80
2023-02-18T07:19:20.912Z,6.03
2023-02-18T07:20:24.383Z,4.22
2023-02-18T07:21:25.976Z,5.15
2023-02-18T07:22:27.580Z,3.78
2023-02-18T07:23:29.216Z,5.28
2023-02-18T07:24:30.835Z,4.93
2023-02-18T07:25:32.550Z,7.45
2023-02-18T07:26:34.145Z,5.10
2023-02-18T07:27:35.738Z,5.20
2023-02-18T07:28:37.461Z,4.73
2023-02-18T07:29:39.059Z,4.80
2023-02-18T07:30:40.750Z,4.78
2023-02-18T07:31:42.510Z,4.20
2023-02-18T07:32:44.228Z,3.97
2023-02-18T07:33:46.037Z,7.88
2023-02-18T07:34:47.672Z,4.00
2023-02-18T07:35:54.336Z,4.72
2023-02-18T07:36:56.047Z,4.53
2023-02-18T07:37:58.203Z,3.92
2023-02-18T07:38:59.799Z,3.53
2023-02-18T07:40:01.408Z,4.13
2023-02-18T07:41:03.013Z,4.28
2023-02-18T07:42:04.694Z,6.10
2023-02-18T07:43:06.362Z,6.00
2023-02-18T07:44:08.001Z,6.05
2023-02-18T07:45:10.044Z,5.05
2023-02-18T07:46:12.048Z,4.10
2023-02-18T07:47:15.717Z,4.05
2023-02-18T07:48:17.405Z,4.68
2023-02-18T07:49:19.014Z,5.00
2023-02-18T07:50:20.780Z,3.53
2023-02-18T07:51:22.404Z,3.72
2023-02-18T07:52:24.040Z,3.88
2023-02-18T07:53:25.703Z,5.80
2023-02-18T07:54:27.570Z,4.00
2023-02-18T07:55:49.190Z,3.83
2023-02-18T07:56:50.914Z,4.05
2023-02-18T07:58:00.413Z,5.32
2023-02-18T07:59:02.048Z,4.53
2023-02-18T08:00:04.258Z,4.07
2023-02-18T08:01:06.978Z,3.70
2023-02-18T08:02:18.014Z,3.45
2023-02-18T08:03:20.708Z,20.45
2023-02-18T08:04:22.424Z,13.93
2023-02-18T08:05:24.116Z,16.67
2023-02-18T08:06:28.514Z,9.50
2023-02-18T08:07:30.112Z,5.38
2023-02-18T08:08:32.237Z,5.28
2023-02-18T08:09:33.868Z,4.88
2023-02-18T08:10:35.537Z,5.80
2023-02-18T08:11:37.361Z,6.13
2023-02-18T08:12:39.088Z,3.28
2023-02-18T08:13:40.778Z,4.20
2023-02-18T08:14:42.582Z,5.03
2023-02-18T08:15:44.227Z,10.15
2023-02-18T08:16:45.891Z,10.43
2023-02-18T08:17:47.525Z,5.90
2023-02-18T08:18:50.037Z,3.55
2023-02-18T08:19:51.739Z,3.50
2023-02-18T08:20:53.712Z,4.00
2023-02-18T08:21:55.313Z,5.78
2023-02-18T08:22:56.913Z,4.97
2023-02-18T08:23:59.194Z,4.25
2023-02-18T08:25:00.827Z,5.43
2023-02-18T08:26:02.549Z,4.05
2023-02-18T08:27:04.172Z,4.70
2023-02-18T08:28:05.859Z,5.60
2023-02-18T08:29:07.468Z,9.52
2023-02-18T08:30:09.508Z,14.65
2023-02-18T08:31:25.601Z,9.67
2023-02-18T08:32:28.942Z,6.50
2023-02-18T08:33:30.698Z,6.18
2023-02-18T08:34:32.329Z,7.07
2023-02-18T08:35:34.215Z,5.00
2023-02-18T08:36:36.044Z,9.05
2023-02-18T08:37:52.130Z,8.15
2023-02-18T08:38:55.643Z,9.77
2023-02-18T08:39:57.289Z,7.20
2023-02-18T08:41:06.127Z,6.13
2023-02-18T08:42:08.791Z,5.80
2023-02-18T08:43:10.671Z,3.20
2023-02-18T08:44:12.319Z,4.47
2023-02-18T08:45:13.937Z,4.68
2023-02-18T08:46:16.721Z,3.65
2023-02-18T08:48:18.286Z,8.52
2023-02-18T08:48:48.247Z,7.15
2023-02-18T08:49:49.843Z,9.70
2023-02-18T08:50:51.484Z,8.07
2023-02-18T08:51:53.155Z,17.73
2023-02-18T08:52:54.738Z,42.67
2023-02-18T08:53:56.429Z,13.57
2023-02-18T08:54:58.047Z,37.30
2023-02-18T08:55:59.691Z,14.10
2023-02-18T08:57:01.289Z,12.48
2023-02-18T08:58:04.761Z,16.77
2023-02-18T08:59:06.405Z,22.85
2023-02-18T09:00:08.423Z,11.05
2023-02-18T09:01:11.361Z,19.73
2023-02-18T09:02:16.113Z,17.98
2023-02-18T09:03:17.773Z,25.27
2023-02-18T09:04:21.185Z,8.20
2023-02-18T09:05:22.862Z,12.98
2023-02-18T09:06:24.549Z,13.90
2023-02-18T09:07:26.156Z,13.40
2023-02-18T09:08:28.266Z,13.43
2023-02-18T09:09:29.889Z,20.75
2023-02-18T09:10:31.503Z,7.25
2023-02-18T09:11:33.280Z,4.90
2023-02-18T09:12:34.890Z,5.13
2023-02-18T09:13:36.528Z,6.00
2023-02-18T09:14:38.177Z,4.32
2023-02-18T09:15:39.830Z,4.25
2023-02-18T09:16:41.729Z,4.78
2023-02-18T09:17:43.346Z,5.43
2023-02-18T09:18:45.365Z,8.52
2023-02-18T09:19:47.351Z,4.93
2023-02-18T09:20:49.867Z,12.10
2023-02-18T09:21:53.227Z,7.07
2023-02-18T09:22:54.886Z,6.28
2023-02-18T09:23:56.788Z,3.90
2023-02-18T09:24:58.561Z,7.40
2023-02-18T09:26:00.242Z,6.53
2023-02-18T09:27:01.841Z,5.15
2023-02-18T09:28:03.483Z,5.40
2023-02-18T09:29:05.085Z,4.30
2023-02-18T09:30:07.236Z,4.13
2023-02-18T09:31:14.156Z,4.75
2023-02-18T09:32:25.445Z,3.85
2023-02-18T09:33:41.404Z,2.88
2023-02-18T09:34:43.043Z,5.10
2023-02-18T09:35:45.462Z,5.00
2023-02-18T09:36:48.318Z,4.93
2023-02-18T09:37:49.957Z,3.50
2023-02-18T09:38:52.124Z,3.65
2023-02-18T09:39:53.871Z,3.28
2023-02-18T09:40:55.901Z,4.85
2023-02-18T09:41:58.640Z,4.43
2023-02-18T09:43:00.258Z,4.80
2023-02-18T09:44:04.571Z,3.92
2023-02-18T09:45:07.213Z,5.10
2023-02-18T09:46:18.209Z,14.23
2023-02-18T09:47:25.618Z,5.75
2023-02-18T09:48:29.004Z,4.30
2023-02-18T09:49:35.449Z,3.58
2023-02-18T09:50:37.165Z,2.80
2023-02-18T09:51:38.776Z,3.30
2023-02-18T09:52:40.534Z,5.10
2023-02-18T09:53:45.201Z,3.72
2023-02-18T09:54:46.865Z,4.78
2023-02-18T09:55:48.741Z,4.47
2023-02-18T09:56:50.345Z,7.28
2023-02-18T09:57:57.077Z,5.38
2023-02-18T09:58:59.014Z,6.18
2023-02-18T10:00:02.089Z,6.82
2023-02-18T10:01:25.418Z,12.20
2023-02-18T10:02:27.090Z,6.20
2023-02-18T10:03:29.299Z,4.78
2023-02-18T10:04:56.848Z,4.28
2023-02-18T10:06:01.721Z,5.57
2023-02-18T10:07:07.098Z,10.13
2023-02-18T10:08:18.818Z,10.25
2023-02-18T10:09:34.633Z,4.90
2023-02-18T10:10:43.226Z,5.97
2023-02-18T10:11:44.878Z,5.53
2023-02-18T10:12:46.560Z,9.32
2023-02-18T10:13:48.217Z,16.67
2023-02-18T10:14:54.930Z,6.97
2023-02-18T10:15:56.657Z,10.23
2023-02-18T10:16:58.370Z,6.22
2023-02-18T10:18:00.030Z,4.63
2023-02-18T10:19:04.827Z,4.68
2023-02-18T10:20:08.459Z,4.00
2023-02-18T10:21:13.068Z,4.35
2023-02-18T10:22:15.195Z,4.28
2023-02-18T10:23:16.903Z,8.55
2023-02-18T10:24:59.707Z,5.07
2023-02-18T10:26:03.337Z,4.93
2023-02-18T10:27:06.324Z,5.88
2023-02-18T10:28:08.861Z,7.95
2023-02-18T10:29:15.050Z,18.13
2023-02-18T10:30:23.775Z,27.45
2023-02-18T10:31:36.826Z,23.55
2023-02-18T10:32:38.513Z,8.88
2023-02-18T10:33:47.712Z,7.32
2023-02-18T10:34:54.135Z,6.38
2023-02-18T10:36:24.988Z,6.70
2023-02-18T10:37:43.260Z,4.82
2023-02-18T10:39:05.852Z,6.75
2023-02-18T10:40:31.403Z,17.27
2023-02-18T10:41:54.299Z,7.67
2023-02-18T10:42:59.456Z,6.95
2023-02-18T10:44:12.889Z,7.63
2023-02-18T10:45:32.789Z,5.82
2023-02-18T10:46:38.044Z,6.03
2023-02-18T10:47:43.460Z,5.75
2023-02-18T10:48:57.137Z,7.50
2023-02-18T10:50:00.915Z,6.78
2023-02-18T10:51:08.483Z,7.32
2023-02-18T10:52:14.806Z,8.38
2023-02-18T10:53:36.197Z,6.10
2023-02-18T10:55:06.036Z,6.18
2023-02-18T10:56:07.835Z,10.32
2023-02-18T10:57:10.563Z,6.45
2023-02-18T10:58:47.484Z,6.32
2023-02-18T10:59:56.272Z,4.80
2023-02-18T11:00:58.166Z,20.92
2023-02-18T11:02:04.041Z,17.50
2023-02-18T11:03:19.120Z,22.52
2023-02-18T11:04:21.638Z,18.80
2023-02-18T11:05:24.637Z,18.10
2023-02-18T11:06:33.134Z,9.10
2023-02-18T11:07:34.995Z,7.75
2023-02-18T11:08:43.093Z,6.18
2023-02-18T11:09:52.689Z,4.90
2023-02-18T11:10:54.670Z,4.35
2023-02-18T11:12:08.691Z,5.18
2023-02-18T11:13:11.074Z,6.43
2023-02-18T11:14:15.264Z,4.25
2023-02-18T11:15:19.825Z,4.82
2023-02-18T11:16:23.576Z,4.00
2023-02-18T11:17:30.780Z,3.83
2023-02-18T11:18:43.124Z,3.80
2023-02-18T11:19:56.732Z,3.35
2023-02-18T11:21:00.575Z,4.13
2023-02-18T11:22:24.016Z,3.50
2023-02-18T11:23:25.913Z,3.28
2023-02-18T11:24:27.520Z,3.05
2023-02-18T11:25:33.627Z,2.80
2023-02-18T11:26:35.698Z,2.70
2023-02-18T11:27:42.126Z,3.00
2023-02-18T11:28:47.597Z,2.40
2023-02-18T11:29:51.933Z,2.35
2023-02-18T11:30:58.463Z,2.80
2023-02-18T11:32:00.185Z,3.45
2023-02-18T11:33:07.677Z,3.00
2023-02-18T11:34:18.529Z,3.30
2023-02-18T11:35:21.710Z,3.38
2023-02-18T11:36:31.556Z,4.20
2023-02-18T11:37:33.392Z,3.05
2023-02-18T11:38:35.048Z,3.30
2023-02-18T11:39:36.695Z,3.50
2023-02-18T11:40:38.316Z,3.55
2023-02-18T11:41:48.241Z,2.10
2023-02-18T11:42:49.944Z,2.40
2023-02-18T11:43:52.285Z,3.88
2023-02-18T11:44:55.600Z,3.60
2023-02-18T11:46:14.971Z,2.95
2023-02-18T11:47:16.533Z,4.65
2023-02-18T11:48:19.738Z,3.53
2023-02-18T11:49:22.446Z,2.23
2023-02-18T11:50:24.355Z,4.25
2023-02-18T11:51:27.092Z,3.35
2023-02-18T11:52:38.956Z,3.00
2023-02-18T11:53:54.808Z,3.10
2023-02-18T11:55:19.379Z,3.58
2023-02-18T11:56:21.349Z,2.25
2023-02-18T11:57:26.505Z,2.53
2023-02-18T11:58:28.699Z,2.67
2023-02-18T11:59:32.881Z,2.55
2023-02-18T12:00:43.888Z,3.00
2023-02-18T12:02:12.465Z,5.22
2023-02-18T12:04:04.351Z,6.05
2023-02-18T12:05:13.229Z,4.30
2023-02-18T12:06:21.122Z,6.05
2023-02-18T12:07:25.299Z,3.72
2023-02-18T12:08:31.691Z,4.70
2023-02-18T12:09:40.732Z,3.20
2023-02-18T12:10:50.590Z,3.60
2023-02-18T12:12:01.025Z,3.08
2023-02-18T12:13:06.536Z,3.10
2023-02-18T12:14:21.519Z,3.50
2023-02-18T12:15:29.585Z,2.50
2023-02-18T12:16:57.426Z,2.92
2023-02-18T12:18:21.548Z,4.22
2023-02-18T12:19:43.006Z,3.03
2023-02-18T12:21:18.144Z,1.85
2023-02-18T12:22:45.863Z,1.92
2023-02-18T12:23:58.436Z,1.60
2023-02-18T12:25:02.979Z,2.75
2023-02-18T12:26:17.286Z,2.87
2023-02-18T12:27:28.354Z,3.00
2023-02-18T12:28:53.256Z,3.08
2023-02-18T12:30:17.205Z,2.70
2023-02-18T12:31:45.939Z,3.15
2023-02-18T12:33:24.430Z,2.90
2023-02-18T12:34:32.170Z,3.50
2023-02-18T12:35:56.985Z,2.88
2023-02-18T12:37:20.234Z,3.67
2023-02-18T12:38:53.663Z,4.28
2023-02-18T12:40:33.214Z,3.00
2023-02-18T12:41:53.676Z,3.67
2023-02-18T12:43:33.418Z,4.30
2023-02-18T12:44:59.811Z,2.83
2023-02-18T12:46:04.941Z,2.83
2023-02-18T12:47:25.911Z,2.85
2023-02-18T12:48:33.608Z,2.47
2023-02-18T12:50:25.252Z,3.17
2023-02-18T12:51:45.335Z,2.40
2023-02-18T12:53:13.136Z,2.63
2023-02-18T12:54:39.299Z,2.40
2023-02-18T12:55:56.240Z,14.52
2023-02-18T12:57:31.688Z,10.40
2023-02-18T12:58:42.477Z,7.88
2023-02-18T12:59:53.163Z,8.02
2023-02-18T13:01:14.565Z,4.25
2023-02-18T13:02:53.261Z,5.47
2023-02-18T13:04:16.063Z,2.65
2023-02-18T13:05:42.236Z,7.80
2023-02-18T13:07:11.501Z,2.15
2023-02-18T13:08:28.853Z,3.53
2023-02-18T13:09:51.604Z,5.97
2023-02-18T13:11:11.098Z,7.43
2023-02-18T13:12:15.327Z,7.90
2023-02-18T13:13:19.777Z,10.63
2023-02-18T13:14:23.753Z,8.50
2023-02-18T13:15:34.234Z,9.88
2023-02-18T13:16:36.162Z,5.38
2023-02-18T13:17:38.012Z,4.03
2023-02-18T13:18:39.695Z,3.53
2023-02-18T13:19:53.046Z,6.40
2023-02-18T13:20:56.845Z,8.30
2023-02-18T13:22:06.026Z,11.05
2023-02-18T13:23:07.792Z,7.78
2023-02-18T13:24:14.167Z,8.75
2023-02-18T13:25:16.113Z,5.57
2023-02-18T13:26:18.026Z,6.68
2023-02-18T13:28:07.280Z,6.68
2023-02-18T13:29:29.773Z,5.57
2023-02-18T13:30:40.820Z,4.53
2023-02-18T13:32:22.165Z,4.97
2023-02-18T13:33:45.293Z,4.38
2023-02-18T13:34:50.773Z,2.63
2023-02-18T13:36:04.932Z,4.40
2023-02-18T13:37:16.581Z,4.38
2023-02-18T13:38:29.985Z,2.92
2023-02-18T13:39:32.120Z,2.70
2023-02-18T13:40:33.900Z,3.42
2023-02-18T13:41:40.786Z,4.97
2023-02-18T13:42:42.913Z,4.47
2023-02-18T13:43:46.534Z,7.87
2023-02-18T13:44:48.820Z,16.58
2023-02-18T13:46:05.761Z,8.88
2023-02-18T13:47:07.651Z,6.55
2023-02-18T13:48:27.082Z,11.65
2023-02-18T13:49:35.152Z,3.67
2023-02-18T13:50:41.714Z,3.40
2023-02-18T13:51:48.066Z,4.30
2023-02-18T13:52:50.401Z,4.20
2023-02-18T13:53:52.745Z,3.40
2023-02-18T13:54:54.892Z,3.80
2023-02-18T13:56:08.784Z,2.47
2023-02-18T13:57:21.562Z,2.58
2023-02-18T13:58:31.013Z,2.15
2023-02-18T13:59:46.413Z,7.10
2023-02-18T14:01:02.574Z,4.00
2023-02-18T14:02:22.808Z,2.50
2023-02-18T14:03:31.092Z,3.08
2023-02-18T14:04:44.943Z,1.90
2023-02-18T14:05:46.649Z,2.35
2023-02-18T14:07:29.834Z,2.40
2023-02-18T14:08:36.577Z,2.08
2023-02-18T14:09:43.060Z,2.22
2023-02-18T14:11:11.993Z,1.67
2023-02-18T14:12:38.014Z,2.00
2023-02-18T14:14:15.860Z,2.15
2023-02-18T14:15:20.263Z,15.13
2023-02-18T14:16:21.979Z,18.38
2023-02-18T14:17:23.881Z,23.02
2023-02-18T14:18:27.677Z,25.08
2023-02-18T14:19:29.598Z,28.20
2023-02-18T14:20:37.875Z,26.33
2023-02-18T14:21:41.356Z,25.55
2023-02-18T14:22:52.079Z,26.60
2023-02-18T14:23:57.673Z,28.33
2023-02-18T14:25:08.176Z,28.65
2023-02-18T14:26:10.227Z,21.73
2023-02-18T14:27:15.753Z,22.13
2023-02-18T14:28:36.299Z,23.75
2023-02-18T14:29:38.332Z,26.70
2023-02-18T14:30:41.358Z,26.27
2023-02-18T14:32:05.072Z,28.10
2023-02-18T14:33:07.191Z,27.17
2023-02-18T14:34:38.858Z,29.48
2023-02-18T14:35:48.898Z,30.05
2023-02-18T14:37:06.727Z,34.08
2023-02-18T14:38:53.037Z,32.40
2023-02-18T14:40:04.042Z,34.28
2023-02-18T14:41:14.264Z,33.08
2023-02-18T14:42:25.236Z,38.67